createdAt,value
2022-09-18T00:01:38.482Z,97961.43
2022-09-18T00:04:07.874Z,97961.26
2022-09-18T00:06:38.515Z,97970.57
2022-09-18T00:09:10.050Z,97978.49
2022-09-18T00:11:41.308Z,97972.54
2022-09-18T00:14:11.585Z,97959.35
2022-09-18T00:16:40.076Z,97944.54
2022-09-18T00:19:09.309Z,97940.75
2022-09-18T00:21:44.408Z,97931.94
2022-09-18T00:24:12.748Z,97922.20
2022-09-18T00:26:41.076Z,97915.84
2022-09-18T00:29:10.900Z,97911.02
2022-09-18T00:31:39.410Z,97916.87
2022-09-18T00:34:11.109Z,97917.56
2022-09-18T00:36:39.839Z,97918.77
2022-09-18T00:39:09.266Z,97907.67
2022-09-18T00:41:39.954Z,97906.34
2022-09-18T00:44:46.121Z,97900.70
2022-09-18T00:47:17.364Z,97894.36
2022-09-18T00:50:05.971Z,97894.84
2022-09-18T00:52:45.677Z,97889.98
2022-09-18T00:55:14.669Z,97891.36
2022-09-18T00:57:48.048Z,97883.73
2022-09-18T01:00:16.131Z,97885.52
2022-09-18T01:02:46.239Z,97880.20
2022-09-18T01:05:29.854Z,97871.25
2022-09-18T01:08:20.679Z,97869.23
2022-09-18T01:11:27.169Z,97873.54
2022-09-18T01:14:16.946Z,97879.98
2022-09-18T01:17:09.696Z,97869.59
2022-09-18T01:20:11.401Z,97878.46
2022-09-18T01:22:48.642Z,97872.88
2022-09-18T01:25:22.797Z,97877.33
2022-09-18T01:28:19.077Z,97875.84
2022-09-18T01:30:49.905Z,97875.88
2022-09-18T01:33:57.093Z,97882.03
2022-09-18T01:36:28.341Z,97873.52
2022-09-18T01:39:10.361Z,97874.98
2022-09-18T01:41:40.672Z,97875.51
2022-09-18T01:44:13.653Z,97877.75
2022-09-18T01:46:44.465Z,97880.27
2022-09-18T01:49:24.059Z,97876.70
2022-09-18T01:52:06.436Z,97869.09
2022-09-18T01:54:38.821Z,97865.02
2022-09-18T01:57:23.214Z,97855.54
2022-09-18T02:00:05.254Z,97861.17
2022-09-18T02:02:54.380Z,97854.39
2022-09-18T02:05:40.006Z,97850.88
2022-09-18T02:08:19.128Z,97850.54
2022-09-18T02:10:55.620Z,97854.77
2022-09-18T02:13:28.948Z,97856.63
2022-09-18T02:16:01.566Z,97858.77
2022-09-18T02:18:34.700Z,97862.83
2022-09-18T02:21:12.015Z,97877.31
2022-09-18T02:23:41.570Z,97892.79
2022-09-18T02:26:11.345Z,97894.52
2022-09-18T02:28:41.186Z,97890.79
2022-09-18T02:31:09.602Z,97889.77
2022-09-18T02:33:38.858Z,97884.23
2022-09-18T02:36:39.293Z,97867.25
2022-09-18T02:39:27.018Z,97830.23
2022-09-18T02:42:13.630Z,97817.38
2022-09-18T02:44:43.952Z,97804.41
2022-09-18T02:47:26.617Z,97778.96
2022-09-18T02:50:13.294Z,97765.61
2022-09-18T02:52:43.397Z,97764.27
2022-09-18T02:55:21.701Z,97758.48
2022-09-18T02:57:56.356Z,97750.20
2022-09-18T03:00:26.171Z,97752.06
2022-09-18T03:02:58.994Z,97755.39
2022-09-18T03:05:38.257Z,97757.23
2022-09-18T03:08:07.069Z,97752.04
2022-09-18T03:10:35.313Z,97750.36
2022-09-18T03:13:04.227Z,97750.69
2022-09-18T03:15:32.821Z,97743.23
2022-09-18T03:18:01.088Z,97734.44
2022-09-18T03:20:29.361Z,97727.14
2022-09-18T03:22:57.638Z,97738.77
2022-09-18T03:25:25.914Z,97740.08
2022-09-18T03:27:56.075Z,97745.65
2022-09-18T03:30:32.022Z,97752.80
2022-09-18T03:33:00.765Z,97745.77
2022-09-18T03:35:29.797Z,97745.18
2022-09-18T03:37:58.050Z,97747.50
2022-09-18T03:40:31.128Z,97752.04
2022-09-18T03:43:02.057Z,97746.30
2022-09-18T03:45:30.428Z,97740.80
2022-09-18T03:47:58.722Z,97749.90
2022-09-18T03:50:26.978Z,97749.63
2022-09-18T03:52:56.112Z,97757.71
2022-09-18T03:55:54.059Z,97763.23
2022-09-18T03:58:41.085Z,97759.73
2022-09-18T04:01:10.430Z,97767.05
2022-09-18T04:03:55.336Z,97769.25
2022-09-18T04:06:41.846Z,97763.70
2022-09-18T04:09:33.018Z,97767.83
2022-09-18T04:12:01.346Z,97756.90
2022-09-18T04:14:30.346Z,97754.00
2022-09-18T04:16:58.820Z,97752.04
2022-09-18T04:19:28.017Z,97745.02
2022-09-18T04:21:58.142Z,97742.00
2022-09-18T04:24:26.602Z,97740.27
2022-09-18T04:26:55.200Z,97739.39
2022-09-18T04:29:24.625Z,97733.95
2022-09-18T04:31:53.663Z,97722.94
2022-09-18T04:34:22.690Z,97743.52
2022-09-18T04:36:50.966Z,97726.05
2022-09-18T04:39:19.376Z,97718.30
2022-09-18T04:41:47.505Z,97737.70
2022-09-18T04:44:15.998Z,97744.55
2022-09-18T04:46:44.668Z,97743.57
2022-09-18T04:49:14.701Z,97730.16
2022-09-18T04:51:43.287Z,97734.27
2022-09-18T04:54:11.917Z,97742.11
2022-09-18T04:56:41.373Z,97751.80
2022-09-18T04:59:10.808Z,97746.04
2022-09-18T05:01:41.545Z,97749.82
2022-09-18T05:04:12.416Z,97749.00
2022-09-18T05:06:51.065Z,97747.09
2022-09-18T05:09:19.430Z,97743.73
2022-09-18T05:11:48.752Z,97754.18
2022-09-18T05:14:17.736Z,97760.23
2022-09-18T05:16:49.017Z,97754.19
2022-09-18T05:19:27.964Z,97748.05
2022-09-18T05:22:01.507Z,97754.48
2022-09-18T05:24:32.221Z,97759.19
2022-09-18T05:27:01.060Z,97767.81
2022-09-18T05:29:30.204Z,97774.94
2022-09-18T05:32:03.617Z,97767.02
2022-09-18T05:34:35.789Z,97766.14
2022-09-18T05:37:04.168Z,97769.02
2022-09-18T05:39:32.546Z,97761.14
2022-09-18T05:42:03.397Z,97771.89
2022-09-18T05:44:33.384Z,97777.96
2022-09-18T05:47:02.140Z,97778.83
2022-09-18T05:49:31.256Z,97775.82
2022-09-18T05:51:59.589Z,97775.23
2022-09-18T05:54:30.293Z,97779.63
2022-09-18T05:57:00.206Z,97780.40
2022-09-18T05:59:29.608Z,97783.34
2022-09-18T06:01:58.457Z,97778.23
2022-09-18T06:04:42.943Z,97786.68
2022-09-18T06:07:13.278Z,97793.06
2022-09-18T06:09:41.561Z,97796.33
2022-09-18T06:12:09.813Z,97802.80
2022-09-18T06:14:38.144Z,97804.04
2022-09-18T06:17:06.340Z,97811.34
2022-09-18T06:19:35.420Z,97816.03
2022-09-18T06:22:03.914Z,97823.92
2022-09-18T06:24:33.101Z,97828.48
2022-09-18T06:27:07.152Z,97835.52
2022-09-18T06:29:35.398Z,97838.64
2022-09-18T06:32:10.415Z,97832.64
2022-09-18T06:34:39.759Z,97834.95
2022-09-18T06:37:10.385Z,97831.28
2022-09-18T06:39:56.190Z,97833.88
2022-09-18T06:42:39.187Z,97847.42
2022-09-18T06:45:16.042Z,97858.44
2022-09-18T06:47:45.597Z,97860.20
2022-09-18T06:50:13.996Z,97863.16
2022-09-18T06:52:42.201Z,97869.20
2022-09-18T06:55:11.333Z,97872.54
2022-09-18T06:57:39.725Z,97872.89
2022-09-18T07:00:10.485Z,97877.98
2022-09-18T07:02:39.511Z,97881.63
2022-09-18T07:05:32.764Z,97883.22
2022-09-18T07:08:01.865Z,97874.84
2022-09-18T07:10:30.607Z,97876.98
2022-09-18T07:13:02.398Z,97875.42
2022-09-18T07:15:31.909Z,97879.45
2022-09-18T07:18:01.907Z,97874.06
2022-09-18T07:20:30.950Z,97880.12
2022-09-18T07:23:01.395Z,97873.67
2022-09-18T07:25:40.469Z,97886.08
2022-09-18T07:28:11.248Z,97895.03
2022-09-18T07:30:46.665Z,97911.75
2022-09-18T07:33:16.107Z,97903.23
2022-09-18T07:35:47.950Z,97902.66
2022-09-18T07:38:16.438Z,97905.83
2022-09-18T07:40:55.903Z,97915.56
2022-09-18T07:43:34.761Z,97913.63
2022-09-18T07:46:03.120Z,97917.21
2022-09-18T07:48:34.024Z,97917.39
2022-09-18T07:51:11.136Z,97912.70
2022-09-18T07:53:39.801Z,97911.80
2022-09-18T07:56:12.300Z,97902.94
2022-09-18T07:58:40.850Z,97902.61
2022-09-18T08:01:16.081Z,97910.26
2022-09-18T08:03:48.348Z,97917.02
2022-09-18T08:06:17.786Z,97923.74
2022-09-18T08:09:08.053Z,97928.02
2022-09-18T08:11:54.569Z,97932.17
2022-09-18T08:14:49.146Z,97943.38
2022-09-18T08:17:34.675Z,97949.47
2022-09-18T08:20:16.377Z,97951.87
2022-09-18T08:22:56.157Z,97954.07
2022-09-18T08:25:28.109Z,97954.87
2022-09-18T08:28:04.137Z,97950.56
2022-09-18T08:30:37.584Z,97960.48
2022-09-18T08:33:09.495Z,97961.93
2022-09-18T08:35:38.112Z,97970.33
2022-09-18T08:38:38.690Z,97974.98
2022-09-18T08:42:07.045Z,97984.46
2022-09-18T08:45:02.069Z,97985.77
2022-09-18T08:47:40.345Z,97990.23
2022-09-18T08:50:21.365Z,97994.61
2022-09-18T08:52:53.910Z,98000.77
2022-09-18T08:55:40.393Z,98004.02
2022-09-18T08:58:35.091Z,98001.53
2022-09-18T09:01:10.178Z,98005.50
2022-09-18T09:04:07.078Z,98013.45
2022-09-18T09:06:42.018Z,98007.55
2022-09-18T09:09:34.097Z,98031.80
2022-09-18T09:12:24.117Z,98035.59
2022-09-18T09:15:28.774Z,98049.38
2022-09-18T09:18:09.622Z,98055.27
2022-09-18T09:20:57.634Z,98053.96
2022-09-18T09:23:42.985Z,98068.84
2022-09-18T09:26:25.665Z,98071.27
2022-09-18T09:29:16.884Z,98078.10
2022-09-18T09:32:11.175Z,98083.55
2022-09-18T09:35:11.169Z,98090.11
2022-09-18T09:37:48.802Z,98094.30
2022-09-18T09:40:21.518Z,98103.98
2022-09-18T09:42:52.504Z,98096.16
2022-09-18T09:45:30.669Z,98108.52
2022-09-18T09:48:16.745Z,98114.48
2022-09-18T09:50:52.697Z,98128.30
2022-09-18T09:53:24.759Z,98149.02
2022-09-18T09:56:12.033Z,98176.23
2022-09-18T09:58:54.774Z,98185.23
2022-09-18T10:01:42.598Z,98194.61
2022-09-18T10:04:37.940Z,98199.95
2022-09-18T10:07:40.721Z,98198.46
2022-09-18T10:10:35.682Z,98206.30
2022-09-18T10:13:14.908Z,98208.48
2022-09-18T10:15:48.208Z,98214.06
2022-09-18T10:18:35.492Z,98219.44
2022-09-18T10:21:15.801Z,98224.02
2022-09-18T10:24:00.101Z,98228.88
2022-09-18T10:26:40.120Z,98231.66
2022-09-18T10:29:10.281Z,98240.79
2022-09-18T10:31:50.255Z,98245.52
2022-09-18T10:34:33.957Z,98245.34
2022-09-18T10:37:02.696Z,98251.83
2022-09-18T10:39:31.951Z,98252.20
2022-09-18T10:42:06.957Z,98260.02
2022-09-18T10:44:37.819Z,98257.02
2022-09-18T10:47:12.974Z,98265.74
2022-09-18T10:49:49.970Z,98278.67
2022-09-18T10:52:30.169Z,98281.62
2022-09-18T10:55:05.776Z,98282.83
2022-09-18T10:57:49.947Z,98286.96
2022-09-18T11:00:21.161Z,98299.05
2022-09-18T11:02:54.969Z,98304.30
2022-09-18T11:05:37.378Z,98318.77
2022-09-18T11:08:14.831Z,98323.36
2022-09-18T11:10:51.037Z,98329.60
2022-09-18T11:13:26.795Z,98338.36
2022-09-18T11:16:02.139Z,98343.87
2022-09-18T11:18:32.763Z,98341.98
2022-09-18T11:21:05.428Z,98355.95
2022-09-18T11:23:35.962Z,98353.09
2022-09-18T11:26:26.798Z,98349.85
2022-09-18T11:29:02.622Z,98346.08
2022-09-18T11:32:15.819Z,98348.90
2022-09-18T11:34:51.281Z,98375.95
2022-09-18T11:37:43.362Z,98388.58
2022-09-18T11:40:33.410Z,98385.36
2022-09-18T11:43:05.751Z,98374.33
2022-09-18T11:45:54.808Z,98388.45
2022-09-18T11:48:35.537Z,98398.09
2022-09-18T11:51:11.381Z,98403.91
2022-09-18T11:53:49.370Z,98391.16
2022-09-18T11:56:17.461Z,98395.17
2022-09-18T11:59:12.208Z,98400.87
2022-09-18T12:01:59.260Z,98401.72
2022-09-18T12:04:53.338Z,98404.81
2022-09-18T12:07:47.522Z,98416.38
2022-09-18T12:10:36.453Z,98425.08
2022-09-18T12:13:28.090Z,98424.65
2022-09-18T12:16:20.252Z,98428.40
2022-09-18T12:19:23.645Z,98425.79
2022-09-18T12:22:12.880Z,98430.41
2022-09-18T12:24:41.717Z,98429.04
2022-09-18T12:27:27.665Z,98434.05
2022-09-18T12:30:11.598Z,98439.15
2022-09-18T12:33:03.798Z,98441.48
2022-09-18T12:35:44.357Z,98443.89
2022-09-18T12:38:40.724Z,98448.62
2022-09-18T12:41:19.152Z,98451.20
2022-09-18T12:44:04.541Z,98459.07
2022-09-18T12:46:50.670Z,98464.90
2022-09-18T12:49:45.051Z,98466.36
2022-09-18T12:52:13.188Z,98474.60
2022-09-18T12:55:14.733Z,98472.79
2022-09-18T12:58:19.664Z,98479.99
2022-09-18T13:00:50.587Z,98486.32
2022-09-18T13:03:22.574Z,98493.07
2022-09-18T13:06:13.509Z,98497.10
2022-09-18T13:08:49.153Z,98492.27
2022-09-18T13:11:44.719Z,98504.05
2022-09-18T13:14:33.366Z,98500.72
2022-09-18T13:17:13.813Z,98509.52
2022-09-18T13:19:57.924Z,98516.29
2022-09-18T13:22:28.360Z,98513.83
2022-09-18T13:24:57.248Z,98522.23
2022-09-18T13:27:26.349Z,98518.34
2022-09-18T13:29:57.181Z,98529.39
2022-09-18T13:32:35.168Z,98532.65
2022-09-18T13:35:14.928Z,98526.08
2022-09-18T13:37:43.802Z,98532.42
2022-09-18T13:40:33.578Z,98532.66
2022-09-18T13:43:36.972Z,98531.44
2022-09-18T13:46:07.243Z,98541.55
2022-09-18T13:48:46.836Z,98538.44
2022-09-18T13:51:22.189Z,98540.39
2022-09-18T13:54:13.709Z,98548.33
2022-09-18T13:57:15.150Z,98553.88
2022-09-18T14:00:06.751Z,98555.63
2022-09-18T14:02:41.194Z,98556.80
2022-09-18T14:05:32.298Z,98565.04
2022-09-18T14:08:19.226Z,98562.44
2022-09-18T14:11:05.073Z,98566.85
2022-09-18T14:13:51.530Z,98571.56
2022-09-18T14:16:20.234Z,98577.80
2022-09-18T14:18:48.782Z,98585.02
2022-09-18T14:21:40.918Z,98589.70
2022-09-18T14:24:27.608Z,98596.36
2022-09-18T14:27:01.655Z,98608.60
2022-09-18T14:29:32.880Z,98615.13
2022-09-18T14:32:02.489Z,98617.80
2022-09-18T14:34:34.474Z,98622.92
2022-09-18T14:37:19.192Z,98635.15
2022-09-18T14:39:47.550Z,98642.52
2022-09-18T14:42:36.962Z,98643.67
2022-09-18T14:45:11.063Z,98644.73
2022-09-18T14:47:43.948Z,98645.42
2022-09-18T14:50:41.388Z,98640.91
2022-09-18T14:53:20.328Z,98638.80
2022-09-18T14:55:52.672Z,98645.16
2022-09-18T14:58:22.478Z,98644.35
2022-09-18T15:00:55.495Z,98646.67
2022-09-18T15:03:31.454Z,98652.33
2022-09-18T15:06:10.796Z,98657.28
2022-09-18T15:08:39.175Z,98667.95
2022-09-18T15:11:07.552Z,98676.48
2022-09-18T15:13:38.080Z,98674.64
2022-09-18T15:16:07.190Z,98671.56
2022-09-18T15:18:42.705Z,98680.48
2022-09-18T15:21:21.492Z,98682.50
2022-09-18T15:23:50.054Z,98691.70
2022-09-18T15:26:19.151Z,98692.16
2022-09-18T15:28:49.720Z,98692.70
2022-09-18T15:31:19.878Z,98700.20
2022-09-18T15:34:13.055Z,98699.11
2022-09-18T15:36:41.794Z,98701.80
2022-09-18T15:39:31.524Z,98704.23
2022-09-18T15:42:23.252Z,98712.59
2022-09-18T15:44:52.251Z,98714.77
2022-09-18T15:47:26.296Z,98714.70
2022-09-18T15:49:55.619Z,98719.95
2022-09-18T15:52:37.982Z,98723.60
2022-09-18T15:55:31.990Z,98728.90
2022-09-18T15:58:05.555Z,98725.27
2022-09-18T16:00:36.932Z,98725.37
2022-09-18T16:03:07.232Z,98723.60
2022-09-18T16:05:38.228Z,98725.48
2022-09-18T16:08:17.791Z,98726.80
2022-09-18T16:10:51.571Z,98736.40
2022-09-18T16:13:22.519Z,98738.28
2022-09-18T16:16:08.935Z,98742.45
2022-09-18T16:19:08.771Z,98752.98
2022-09-18T16:21:44.777Z,98762.36
2022-09-18T16:24:23.960Z,98767.33
2022-09-18T16:26:52.356Z,98764.06
2022-09-18T16:29:22.340Z,98757.38
2022-09-18T16:31:50.670Z,98759.44
2022-09-18T16:34:29.248Z,98765.46
2022-09-18T16:36:57.452Z,98773.59
2022-09-18T16:39:27.255Z,98783.29
2022-09-18T16:41:55.510Z,98783.48
2022-09-18T16:44:25.089Z,98790.80
2022-09-18T16:46:58.754Z,98799.34
2022-09-18T16:49:30.708Z,98799.51
2022-09-18T16:51:59.449Z,98808.55
2022-09-18T16:54:27.747Z,98814.59
2022-09-18T16:57:05.939Z,98824.03
2022-09-18T16:59:34.573Z,98832.58
2022-09-18T17:02:04.847Z,98844.76
2022-09-18T17:04:34.408Z,98848.27
2022-09-18T17:07:03.027Z,98851.29
2022-09-18T17:09:32.965Z,98850.48
2022-09-18T17:12:01.445Z,98855.52
2022-09-18T17:14:29.810Z,98863.09
2022-09-18T17:16:58.027Z,98868.27
2022-09-18T17:19:26.374Z,98875.52
2022-09-18T17:21:54.639Z,98879.46
2022-09-18T17:24:26.275Z,98882.76
2022-09-18T17:26:54.684Z,98878.75
2022-09-18T17:29:22.939Z,98888.91
2022-09-18T17:31:52.490Z,98896.75
2022-09-18T17:34:22.380Z,98897.02
2022-09-18T17:36:50.612Z,98898.35
2022-09-18T17:39:18.798Z,98894.98
2022-09-18T17:41:46.935Z,98900.70
2022-09-18T17:44:15.588Z,98905.98
2022-09-18T17:46:44.627Z,98910.41
2022-09-18T17:49:13.045Z,98915.27
2022-09-18T17:51:41.340Z,98915.95
2022-09-18T17:54:10.716Z,98920.05
2022-09-18T17:56:39.135Z,98923.55
2022-09-18T17:59:09.431Z,98918.84
2022-09-18T18:01:40.303Z,98923.33
2022-09-18T18:04:09.256Z,98933.58
2022-09-18T18:06:37.736Z,98934.80
2022-09-18T18:09:09.772Z,98941.41
2022-09-18T18:11:38.390Z,98938.73
2022-09-18T18:14:06.859Z,98942.77
2022-09-18T18:16:35.631Z,98946.71
2022-09-18T18:19:06.180Z,98955.59
2022-09-18T18:21:34.864Z,98955.34
2022-09-18T18:24:09.027Z,98964.36
2022-09-18T18:26:39.935Z,98965.98
2022-09-18T18:29:11.997Z,98973.27
2022-09-18T18:31:42.203Z,98969.81
2022-09-18T18:34:11.908Z,98969.97
2022-09-18T18:36:42.269Z,98969.84
2022-09-18T18:39:12.457Z,98970.96
2022-09-18T18:41:41.357Z,98973.66
2022-09-18T18:44:11.683Z,98978.14
2022-09-18T18:46:40.221Z,98975.41
2022-09-18T18:49:15.403Z,98983.27
2022-09-18T18:51:47.610Z,98984.74
2022-09-18T18:54:18.185Z,98992.56
2022-09-18T18:56:47.329Z,98989.96
2022-09-18T18:59:20.967Z,98996.34
2022-09-18T19:01:49.518Z,99002.67
2022-09-18T19:04:21.427Z,99009.96
2022-09-18T19:06:49.807Z,99004.79
2022-09-18T19:09:26.483Z,99008.73
2022-09-18T19:11:54.835Z,99001.16
2022-09-18T19:14:29.279Z,98998.35
2022-09-18T19:16:58.068Z,98996.70
2022-09-18T19:19:28.497Z,98995.88
2022-09-18T19:21:59.983Z,98994.41
2022-09-18T19:24:30.087Z,98982.11
2022-09-18T19:26:59.159Z,98988.92
2022-09-18T19:29:28.149Z,98986.36
2022-09-18T19:31:57.919Z,98986.92
2022-09-18T19:34:26.335Z,98989.19
2022-09-18T19:36:54.519Z,98993.69
2022-09-18T19:39:24.754Z,98997.03
2022-09-18T19:42:19.432Z,98999.77
2022-09-18T19:44:52.989Z,99009.18
2022-09-18T19:47:28.472Z,99011.19
2022-09-18T19:50:01.668Z,99012.13
2022-09-18T19:52:30.168Z,99011.09
2022-09-18T19:54:59.079Z,99010.10
2022-09-18T19:57:28.663Z,99008.98
2022-09-18T19:59:58.885Z,99007.77
2022-09-18T20:02:27.265Z,99006.12
2022-09-18T20:04:56.974Z,99004.64
2022-09-18T20:07:25.352Z,99004.43
2022-09-18T20:09:53.832Z,99003.09
2022-09-18T20:12:22.109Z,99004.46
2022-09-18T20:14:50.952Z,99008.73
2022-09-18T20:17:19.275Z,99007.41
2022-09-18T20:19:47.637Z,99016.42
2022-09-18T20:22:16.013Z,99016.94
2022-09-18T20:24:44.307Z,99020.39
2022-09-18T20:27:13.181Z,99025.23
2022-09-18T20:29:41.630Z,99021.10
2022-09-18T20:32:10.043Z,99016.60
2022-09-18T20:34:38.846Z,99015.34
2022-09-18T20:37:09.659Z,99015.38
2022-09-18T20:39:37.859Z,99020.16
2022-09-18T20:42:06.233Z,99024.92
2022-09-18T20:44:35.278Z,99027.69
2022-09-18T20:47:05.314Z,99027.47
2022-09-18T20:49:34.012Z,99027.36
2022-09-18T20:52:03.734Z,99024.26
2022-09-18T20:54:32.017Z,99021.06
2022-09-18T20:57:00.783Z,99020.51
2022-09-18T20:59:29.280Z,99020.62
2022-09-18T21:01:58.419Z,99022.02
2022-09-18T21:04:26.732Z,99025.76
2022-09-18T21:06:56.537Z,99025.35
2022-09-18T21:09:26.973Z,99021.52
2022-09-18T21:11:57.045Z,99035.65
2022-09-18T21:14:27.650Z,99042.38
2022-09-18T21:16:56.238Z,99041.95
2022-09-18T21:19:26.427Z,99044.65
2022-09-18T21:21:54.972Z,99042.40
2022-09-18T21:24:23.345Z,99045.69
2022-09-18T21:26:51.576Z,99049.12
2022-09-18T21:29:26.248Z,99051.56
2022-09-18T21:31:58.874Z,99058.92
2022-09-18T21:34:31.350Z,99061.20
2022-09-18T21:37:02.999Z,99064.77
2022-09-18T21:39:32.311Z,99073.55
2022-09-18T21:42:01.876Z,99074.78
2022-09-18T21:44:31.981Z,99070.52
2022-09-18T21:47:02.625Z,99068.52
2022-09-18T21:49:31.435Z,99070.01
2022-09-18T21:52:06.067Z,99071.96
2022-09-18T21:54:34.984Z,99075.20
2022-09-18T21:57:03.476Z,99078.30
2022-09-18T21:59:32.540Z,99077.22
2022-09-18T22:02:05.936Z,99078.27
2022-09-18T22:04:34.334Z,99082.55
2022-09-18T22:07:02.581Z,99083.27
2022-09-18T22:09:35.067Z,99083.58
2022-09-18T22:12:03.552Z,99079.72
2022-09-18T22:14:32.985Z,99079.52
2022-09-18T22:17:03.736Z,99077.57
2022-09-18T22:19:34.262Z,99080.13
2022-09-18T22:22:03.734Z,99079.08
2022-09-18T22:24:31.888Z,99076.84
2022-09-18T22:27:02.952Z,99078.46
2022-09-18T22:29:34.380Z,99071.95
2022-09-18T22:32:03.052Z,99072.49
2022-09-18T22:34:32.773Z,99074.23
2022-09-18T22:37:01.787Z,99070.70
2022-09-18T22:39:30.551Z,99074.75
2022-09-18T22:41:58.887Z,99073.87
2022-09-18T22:44:27.210Z,99080.49
2022-09-18T22:46:55.783Z,99076.33
2022-09-18T22:49:24.175Z,99081.16
2022-09-18T22:51:52.572Z,99081.10
2022-09-18T22:54:25.345Z,99074.69
2022-09-18T22:56:54.532Z,99084.29
2022-09-18T22:59:24.452Z,99093.73
2022-09-18T23:01:57.177Z,99086.73
2022-09-18T23:04:29.324Z,99089.71
2022-09-18T23:06:59.416Z,99091.71
2022-09-18T23:09:28.196Z,99092.73
2022-09-18T23:11:57.193Z,99097.60
2022-09-18T23:14:28.033Z,99102.65
2022-09-18T23:16:57.738Z,99099.96
2022-09-18T23:19:34.103Z,99104.39
2022-09-18T23:22:02.735Z,99109.58
2022-09-18T23:24:31.986Z,99114.19
2022-09-18T23:27:00.261Z,99116.43
2022-09-18T23:29:29.048Z,99111.65
2022-09-18T23:31:59.905Z,99108.38
2022-09-18T23:34:31.134Z,99110.89
2022-09-18T23:37:00.123Z,99111.00
2022-09-18T23:39:34.002Z,99108.96
2022-09-18T23:42:05.957Z,99109.16
2022-09-18T23:44:34.782Z,99111.16
2022-09-18T23:47:03.719Z,99115.48
2022-09-18T23:49:32.151Z,99117.91
2022-09-18T23:52:00.952Z,99120.98
2022-09-18T23:54:30.873Z,99122.91
2022-09-18T23:56:59.545Z,99121.04
2022-09-18T23:59:28.022Z,99122.94
